Ladue, Missouri
Current Conditions -  °F | °C
As of 6:51 AM on Tuesday 21 Oct 2014 (Local Time) from KSTL Reporting Station
Clear Clear  
Wind Chill: 49°   Ceiling: Unl
Heat Index: 49°   Visibility: 10mi
Dew Point: 43°   Wind: 0mph
Humidity: 80%   Direction: NA
Pressure: 30.08"   Gusts: NA
Location:  38.6383°N, 90.3807°W
Report Text: KSTL 211151Z 00000KT 10SM CLR 09/06 A3008 RMK AO2 SLP185 T00940061 10117 20089 52016
Loading
Personal Weather Stations






























Interactive Weather Map
Tropical Storm Tracking
New forecast layout! Learn more

10-Day Weather Forecast

Advertisements
Track Severe Weather on mobile